sensor_id;sensor_type;location;lat;lon;timestamp;P1;durP1;ratioP1;P2;durP2;ratioP2
10410;SDS011;5251;52.112;8.606;2022-08-11T00:02:27;3.50;;;1.95;;
10410;SDS011;5251;52.112;8.606;2022-08-11T00:05:00;2.78;;;1.98;;
10410;SDS011;5251;52.112;8.606;2022-08-11T00:07:42;1.95;;;1.80;;
10410;SDS011;5251;52.112;8.606;2022-08-11T00:10:27;2.20;;;1.98;;
10410;SDS011;5251;52.112;8.606;2022-08-11T00:12:55;2.30;;;1.90;;
10410;SDS011;5251;52.112;8.606;2022-08-11T00:15:24;2.05;;;1.80;;
10410;SDS011;5251;52.112;8.606;2022-08-11T00:17:56;5.30;;;2.15;;
10410;SDS011;5251;52.112;8.606;2022-08-11T00:20:29;4.07;;;2.20;;
10410;SDS011;5251;52.112;8.606;2022-08-11T00:23:05;2.40;;;1.95;;
10410;SDS011;5251;52.112;8.606;2022-08-11T00:25:39;1.75;;;1.63;;
10410;SDS011;5251;52.112;8.606;2022-08-11T00:30:55;2.00;;;1.80;;
10410;SDS011;5251;52.112;8.606;2022-08-11T00:33:34;2.63;;;2.08;;
10410;SDS011;5251;52.112;8.606;2022-08-11T00:36:02;3.15;;;1.95;;
10410;SDS011;5251;52.112;8.606;2022-08-11T00:38:30;3.72;;;1.95;;
10410;SDS011;5251;52.112;8.606;2022-08-11T00:41:00;2.33;;;1.98;;
10410;SDS011;5251;52.112;8.606;2022-08-11T00:43:36;2.95;;;2.30;;
10410;SDS011;5251;52.112;8.606;2022-08-11T00:48:58;2.35;;;1.98;;
10410;SDS011;5251;52.112;8.606;2022-08-11T01:00:14;2.50;;;1.90;;
10410;SDS011;5251;52.112;8.606;2022-08-11T01:05:50;2.67;;;2.10;;
10410;SDS011;5251;52.112;8.606;2022-08-11T01:08:55;2.72;;;2.00;;
10410;SDS011;5251;52.112;8.606;2022-08-11T01:17:34;2.00;;;1.80;;
10410;SDS011;5251;52.112;8.606;2022-08-11T01:20:20;2.17;;;1.98;;
10410;SDS011;5251;52.112;8.606;2022-08-11T01:36:59;2.90;;;2.30;;
10410;SDS011;5251;52.112;8.606;2022-08-11T02:01:51;2.63;;;2.05;;
10410;SDS011;5251;52.112;8.606;2022-08-11T02:10:33;3.35;;;2.15;;
10410;SDS011;5251;52.112;8.606;2022-08-11T02:13:33;2.97;;;2.10;;
10410;SDS011;5251;52.112;8.606;2022-08-11T02:16:25;2.28;;;1.85;;
10410;SDS011;5251;52.112;8.606;2022-08-11T02:19:04;2.20;;;2.00;;
10410;SDS011;5251;52.112;8.606;2022-08-11T02:25:31;2.20;;;1.92;;
10410;SDS011;5251;52.112;8.606;2022-08-11T02:31:11;2.17;;;2.00;;
10410;SDS011;5251;52.112;8.606;2022-08-11T02:34:23;2.45;;;2.20;;
10410;SDS011;5251;52.112;8.606;2022-08-11T02:39:45;3.60;;;2.03;;
10410;SDS011;5251;52.112;8.606;2022-08-11T02:42:22;2.13;;;2.03;;
10410;SDS011;5251;52.112;8.606;2022-08-11T02:48:03;2.40;;;2.08;;
10410;SDS011;5251;52.112;8.606;2022-08-11T02:53:47;3.63;;;2.35;;
10410;SDS011;5251;52.112;8.606;2022-08-11T02:59:24;3.25;;;2.28;;
10410;SDS011;5251;52.112;8.606;2022-08-11T03:07:31;2.35;;;2.15;;
10410;SDS011;5251;52.112;8.606;2022-08-11T03:12:49;3.72;;;2.28;;
10410;SDS011;5251;52.112;8.606;2022-08-11T03:15:41;2.42;;;2.22;;
10410;SDS011;5251;52.112;8.606;2022-08-11T03:18:41;4.20;;;2.47;;
10410;SDS011;5251;52.112;8.606;2022-08-11T03:21:16;2.58;;;2.38;;
10410;SDS011;5251;52.112;8.606;2022-08-11T03:23:55;2.38;;;2.15;;
10410;SDS011;5251;52.112;8.606;2022-08-11T03:29:07;2.83;;;2.10;;
10410;SDS011;5251;52.112;8.606;2022-08-11T03:32:10;2.55;;;2.30;;
10410;SDS011;5251;52.112;8.606;2022-08-11T03:34:46;2.97;;;2.10;;
10410;SDS011;5251;52.112;8.606;2022-08-11T03:37:34;2.67;;;2.28;;
10410;SDS011;5251;52.112;8.606;2022-08-11T03:43:23;3.28;;;2.55;;
10410;SDS011;5251;52.112;8.606;2022-08-11T03:46:13;2.95;;;2.55;;
10410;SDS011;5251;52.112;8.606;2022-08-11T03:51:53;4.38;;;2.42;;
10410;SDS011;5251;52.112;8.606;2022-08-11T04:15:57;3.53;;;2.78;;
10410;SDS011;5251;52.112;8.606;2022-08-11T04:21:07;2.63;;;2.38;;
10410;SDS011;5251;52.112;8.606;2022-08-11T05:01:31;2.63;;;2.40;;
10410;SDS011;5251;52.112;8.606;2022-08-11T05:07:03;4.40;;;2.45;;
10410;SDS011;5251;52.112;8.606;2022-08-11T05:09:40;3.58;;;3.03;;
10410;SDS011;5251;52.112;8.606;2022-08-11T05:14:49;2.65;;;2.45;;
10410;SDS011;5251;52.112;8.606;2022-08-11T05:17:39;2.92;;;2.63;;
10410;SDS011;5251;52.112;8.606;2022-08-11T05:20:48;5.88;;;3.15;;
10410;SDS011;5251;52.112;8.606;2022-08-11T05:23:37;3.45;;;2.60;;
10410;SDS011;5251;52.112;8.606;2022-08-11T05:26:24;3.92;;;2.58;;
10410;SDS011;5251;52.112;8.606;2022-08-11T05:32:24;4.25;;;3.17;;
10410;SDS011;5251;52.112;8.606;2022-08-11T05:35:15;3.63;;;2.80;;
10410;SDS011;5251;52.112;8.606;2022-08-11T05:37:43;2.72;;;2.53;;
10410;SDS011;5251;52.112;8.606;2022-08-11T05:40:29;4.47;;;2.85;;
10410;SDS011;5251;52.112;8.606;2022-08-11T05:43:14;3.47;;;2.72;;
10410;SDS011;5251;52.112;8.606;2022-08-11T05:46:00;3.40;;;3.10;;
10410;SDS011;5251;52.112;8.606;2022-08-11T05:48:49;5.05;;;3.47;;
10410;SDS011;5251;52.112;8.606;2022-08-11T05:51:41;3.80;;;2.92;;
10410;SDS011;5251;52.112;8.606;2022-08-11T05:54:26;4.40;;;3.17;;
10410;SDS011;5251;52.112;8.606;2022-08-11T05:57:21;4.40;;;3.15;;
10410;SDS011;5251;52.112;8.606;2022-08-11T05:59:50;3.83;;;3.42;;
10410;SDS011;5251;52.112;8.606;2022-08-11T06:02:24;3.90;;;3.50;;
10410;SDS011;5251;52.112;8.606;2022-08-11T06:04:54;4.10;;;3.10;;
10410;SDS011;5251;52.112;8.606;2022-08-11T06:07:26;3.80;;;3.38;;
10410;SDS011;5251;52.112;8.606;2022-08-11T06:09:54;4.57;;;3.28;;
10410;SDS011;5251;52.112;8.606;2022-08-11T06:12:23;4.38;;;3.70;;
10410;SDS011;5251;52.112;8.606;2022-08-11T06:15:00;4.75;;;3.55;;
10410;SDS011;5251;52.112;8.606;2022-08-11T06:17:30;4.68;;;3.53;;
10410;SDS011;5251;52.112;8.606;2022-08-11T06:20:01;3.90;;;3.50;;
10410;SDS011;5251;52.112;8.606;2022-08-11T06:22:28;4.35;;;3.65;;
10410;SDS011;5251;52.112;8.606;2022-08-11T06:24:56;4.28;;;3.70;;
10410;SDS011;5251;52.112;8.606;2022-08-11T06:27:24;6.88;;;3.45;;
10410;SDS011;5251;52.112;8.606;2022-08-11T06:29:51;4.88;;;3.15;;
10410;SDS011;5251;52.112;8.606;2022-08-11T06:32:19;4.00;;;3.60;;
10410;SDS011;5251;52.112;8.606;2022-08-11T06:37:14;6.35;;;3.40;;
10410;SDS011;5251;52.112;8.606;2022-08-11T06:47:33;3.08;;;2.70;;
10410;SDS011;5251;52.112;8.606;2022-08-11T06:49:59;3.00;;;2.70;;
10410;SDS011;5251;52.112;8.606;2022-08-11T06:52:44;3.15;;;2.50;;
10410;SDS011;5251;52.112;8.606;2022-08-11T06:55:21;6.18;;;2.70;;
10410;SDS011;5251;52.112;8.606;2022-08-11T06:58:15;3.78;;;2.70;;
10410;SDS011;5251;52.112;8.606;2022-08-11T07:01:04;3.92;;;3.00;;
10410;SDS011;5251;52.112;8.606;2022-08-11T07:03:36;2.90;;;2.55;;
10410;SDS011;5251;52.112;8.606;2022-08-11T07:06:21;5.72;;;2.97;;
10410;SDS011;5251;52.112;8.606;2022-08-11T07:13:02;4.20;;;2.65;;
10410;SDS011;5251;52.112;8.606;2022-08-11T07:15:47;4.20;;;2.35;;
10410;SDS011;5251;52.112;8.606;2022-08-11T07:18:20;2.25;;;1.80;;
10410;SDS011;5251;52.112;8.606;2022-08-11T07:21:30;3.17;;;2.10;;
10410;SDS011;5251;52.112;8.606;2022-08-11T07:24:19;2.95;;;2.00;;
10410;SDS011;5251;52.112;8.606;2022-08-11T07:27:08;3.13;;;2.28;;
10410;SDS011;5251;52.112;8.606;2022-08-11T07:29:57;2.40;;;2.17;;
10410;SDS011;5251;52.112;8.606;2022-08-11T07:32:31;2.20;;;1.85;;
10410;SDS011;5251;52.112;8.606;2022-08-11T07:35:44;2.92;;;2.10;;
10410;SDS011;5251;52.112;8.606;2022-08-11T07:38:06;3.22;;;2.17;;
10410;SDS011;5251;52.112;8.606;2022-08-11T07:40:38;6.15;;;2.22;;
10410;SDS011;5251;52.112;8.606;2022-08-11T07:43:06;3.22;;;2.35;;
10410;SDS011;5251;52.112;8.606;2022-08-11T07:45:32;2.65;;;2.05;;
10410;SDS011;5251;52.112;8.606;2022-08-11T07:48:17;2.15;;;1.90;;
10410;SDS011;5251;52.112;8.606;2022-08-11T07:51:03;3.40;;;2.40;;
10410;SDS011;5251;52.112;8.606;2022-08-11T07:53:47;4.07;;;2.47;;
10410;SDS011;5251;52.112;8.606;2022-08-11T07:56:15;3.10;;;2.17;;
10410;SDS011;5251;52.112;8.606;2022-08-11T07:58:43;2.97;;;1.90;;
10410;SDS011;5251;52.112;8.606;2022-08-11T08:01:28;2.13;;;1.77;;
10410;SDS011;5251;52.112;8.606;2022-08-11T08:04:15;3.80;;;2.00;;
10410;SDS011;5251;52.112;8.606;2022-08-11T08:07:01;4.20;;;1.92;;
10410;SDS011;5251;52.112;8.606;2022-08-11T08:09:47;2.28;;;2.03;;
10410;SDS011;5251;52.112;8.606;2022-08-11T08:12:33;2.10;;;1.70;;
10410;SDS011;5251;52.112;8.606;2022-08-11T08:15:18;2.17;;;1.65;;
10410;SDS011;5251;52.112;8.606;2022-08-11T08:18:04;3.20;;;1.80;;
10410;SDS011;5251;52.112;8.606;2022-08-11T08:20:34;2.67;;;2.00;;
10410;SDS011;5251;52.112;8.606;2022-08-11T08:23:03;2.20;;;1.67;;
10410;SDS011;5251;52.112;8.606;2022-08-11T08:25:31;1.92;;;1.73;;
10410;SDS011;5251;52.112;8.606;2022-08-11T08:28:00;6.95;;;1.70;;
10410;SDS011;5251;52.112;8.606;2022-08-11T08:30:29;2.72;;;1.65;;
10410;SDS011;5251;52.112;8.606;2022-08-11T08:33:47;2.35;;;1.70;;
10410;SDS011;5251;52.112;8.606;2022-08-11T08:36:06;3.13;;;1.65;;
10410;SDS011;5251;52.112;8.606;2022-08-11T08:41:03;3.35;;;1.90;;
10410;SDS011;5251;52.112;8.606;2022-08-11T08:43:30;2.10;;;1.90;;
10410;SDS011;5251;52.112;8.606;2022-08-11T08:45:58;2.30;;;1.80;;
10410;SDS011;5251;52.112;8.606;2022-08-11T08:48:24;3.08;;;1.70;;
10410;SDS011;5251;52.112;8.606;2022-08-11T08:50:55;2.00;;;1.50;;
10410;SDS011;5251;52.112;8.606;2022-08-11T08:53:45;2.35;;;1.85;;
10410;SDS011;5251;52.112;8.606;2022-08-11T08:56:14;3.50;;;1.90;;
10410;SDS011;5251;52.112;8.606;2022-08-11T08:58:40;2.35;;;1.67;;
10410;SDS011;5251;52.112;8.606;2022-08-11T09:01:08;2.08;;;1.60;;
10410;SDS011;5251;52.112;8.606;2022-08-11T09:03:36;3.33;;;1.90;;
10410;SDS011;5251;52.112;8.606;2022-08-11T09:06:02;1.83;;;1.65;;
10410;SDS011;5251;52.112;8.606;2022-08-11T09:08:29;1.90;;;1.70;;
10410;SDS011;5251;52.112;8.606;2022-08-11T09:10:56;2.47;;;1.85;;
10410;SDS011;5251;52.112;8.606;2022-08-11T09:13:43;1.88;;;1.75;;
10410;SDS011;5251;52.112;8.606;2022-08-11T09:16:11;2.30;;;1.98;;
10410;SDS011;5251;52.112;8.606;2022-08-11T09:18:38;5.10;;;1.70;;
10410;SDS011;5251;52.112;8.606;2022-08-11T09:21:09;3.33;;;1.50;;
10410;SDS011;5251;52.112;8.606;2022-08-11T09:23:39;2.55;;;1.70;;
10410;SDS011;5251;52.112;8.606;2022-08-11T09:26:25;1.92;;;1.70;;
10410;SDS011;5251;52.112;8.606;2022-08-11T09:29:27;4.95;;;1.92;;
10410;SDS011;5251;52.112;8.606;2022-08-11T09:31:55;2.65;;;1.75;;
10410;SDS011;5251;52.112;8.606;2022-08-11T09:34:21;3.80;;;1.73;;
10410;SDS011;5251;52.112;8.606;2022-08-11T09:36:48;2.65;;;1.80;;
10410;SDS011;5251;52.112;8.606;2022-08-11T09:39:35;2.30;;;1.70;;
10410;SDS011;5251;52.112;8.606;2022-08-11T09:42:21;2.47;;;1.67;;
10410;SDS011;5251;52.112;8.606;2022-08-11T09:45:08;2.17;;;1.70;;
10410;SDS011;5251;52.112;8.606;2022-08-11T09:47:36;2.95;;;1.70;;
10410;SDS011;5251;52.112;8.606;2022-08-11T09:50:03;2.92;;;1.77;;
10410;SDS011;5251;52.112;8.606;2022-08-11T09:52:48;3.72;;;1.77;;
10410;SDS011;5251;52.112;8.606;2022-08-11T09:55:15;2.63;;;1.98;;
10410;SDS011;5251;52.112;8.606;2022-08-11T09:57:45;1.92;;;1.50;;
10410;SDS011;5251;52.112;8.606;2022-08-11T10:00:33;2.47;;;1.63;;
10410;SDS011;5251;52.112;8.606;2022-08-11T10:03:09;2.28;;;2.00;;
10410;SDS011;5251;52.112;8.606;2022-08-11T10:05:46;1.77;;;1.65;;
10410;SDS011;5251;52.112;8.606;2022-08-11T10:08:33;2.35;;;1.67;;
10410;SDS011;5251;52.112;8.606;2022-08-11T10:11:01;2.45;;;1.80;;
10410;SDS011;5251;52.112;8.606;2022-08-11T10:13:32;1.85;;;1.70;;
10410;SDS011;5251;52.112;8.606;2022-08-11T10:16:19;2.05;;;1.70;;
10410;SDS011;5251;52.112;8.606;2022-08-11T10:18:50;2.70;;;1.70;;
10410;SDS011;5251;52.112;8.606;2022-08-11T10:21:22;2.17;;;1.55;;
10410;SDS011;5251;52.112;8.606;2022-08-11T10:23:49;1.80;;;1.70;;
10410;SDS011;5251;52.112;8.606;2022-08-11T10:26:36;2.40;;;1.60;;
10410;SDS011;5251;52.112;8.606;2022-08-11T10:29:32;2.20;;;1.80;;
10410;SDS011;5251;52.112;8.606;2022-08-11T10:32:24;3.30;;;1.80;;
10410;SDS011;5251;52.112;8.606;2022-08-11T10:35:16;1.77;;;1.60;;
10410;SDS011;5251;52.112;8.606;2022-08-11T10:37:44;1.70;;;1.60;;
10410;SDS011;5251;52.112;8.606;2022-08-11T10:40:15;3.10;;;2.10;;
10410;SDS011;5251;52.112;8.606;2022-08-11T10:42:46;1.80;;;1.60;;
10410;SDS011;5251;52.112;8.606;2022-08-11T10:45:38;3.55;;;1.67;;
10410;SDS011;5251;52.112;8.606;2022-08-11T10:48:29;1.90;;;1.70;;
10410;SDS011;5251;52.112;8.606;2022-08-11T10:51:00;2.35;;;1.63;;
10410;SDS011;5251;52.112;8.606;2022-08-11T10:53:42;2.38;;;1.55;;
10410;SDS011;5251;52.112;8.606;2022-08-11T10:56:28;1.70;;;1.60;;
10410;SDS011;5251;52.112;8.606;2022-08-11T10:59:15;2.20;;;2.00;;
10410;SDS011;5251;52.112;8.606;2022-08-11T11:01:41;1.98;;;1.77;;
10410;SDS011;5251;52.112;8.606;2022-08-11T11:07:20;1.75;;;1.63;;
10410;SDS011;5251;52.112;8.606;2022-08-11T11:09:49;2.63;;;1.73;;
10410;SDS011;5251;52.112;8.606;2022-08-11T11:12:19;2.40;;;1.80;;
10410;SDS011;5251;52.112;8.606;2022-08-11T11:15:07;2.55;;;1.63;;
10410;SDS011;5251;52.112;8.606;2022-08-11T11:18:15;2.40;;;1.67;;
10410;SDS011;5251;52.112;8.606;2022-08-11T11:21:05;1.85;;;1.70;;
10410;SDS011;5251;52.112;8.606;2022-08-11T11:23:40;2.95;;;1.70;;
10410;SDS011;5251;52.112;8.606;2022-08-11T11:26:29;1.58;;;1.48;;
10410;SDS011;5251;52.112;8.606;2022-08-11T11:34:50;1.92;;;1.70;;
10410;SDS011;5251;52.112;8.606;2022-08-11T11:37:38;2.10;;;1.83;;
10410;SDS011;5251;52.112;8.606;2022-08-11T11:40:07;1.75;;;1.65;;
10410;SDS011;5251;52.112;8.606;2022-08-11T11:42:35;2.17;;;1.70;;
10410;SDS011;5251;52.112;8.606;2022-08-11T11:45:02;2.42;;;1.60;;
10410;SDS011;5251;52.112;8.606;2022-08-11T11:47:29;2.05;;;1.63;;
10410;SDS011;5251;52.112;8.606;2022-08-11T11:49:56;2.00;;;1.80;;
10410;SDS011;5251;52.112;8.606;2022-08-11T11:52:23;1.98;;;1.60;;
10410;SDS011;5251;52.112;8.606;2022-08-11T11:54:51;2.35;;;1.73;;
10410;SDS011;5251;52.112;8.606;2022-08-11T11:57:19;1.55;;;1.45;;
10410;SDS011;5251;52.112;8.606;2022-08-11T12:00:06;2.20;;;1.60;;
10410;SDS011;5251;52.112;8.606;2022-08-11T12:02:51;2.10;;;1.88;;
10410;SDS011;5251;52.112;8.606;2022-08-11T12:05:18;1.90;;;1.50;;
10410;SDS011;5251;52.112;8.606;2022-08-11T12:07:45;2.42;;;1.70;;
10410;SDS011;5251;52.112;8.606;2022-08-11T12:10:29;3.20;;;1.77;;
10410;SDS011;5251;52.112;8.606;2022-08-11T12:12:56;1.88;;;1.50;;
10410;SDS011;5251;52.112;8.606;2022-08-11T12:15:44;3.08;;;1.80;;
10410;SDS011;5251;52.112;8.606;2022-08-11T12:18:12;1.77;;;1.60;;
10410;SDS011;5251;52.112;8.606;2022-08-11T12:20:39;1.60;;;1.50;;
10410;SDS011;5251;52.112;8.606;2022-08-11T12:23:05;1.60;;;1.50;;
10410;SDS011;5251;52.112;8.606;2022-08-11T12:25:50;1.60;;;1.50;;
10410;SDS011;5251;52.112;8.606;2022-08-11T12:28:35;1.67;;;1.35;;
10410;SDS011;5251;52.112;8.606;2022-08-11T12:31:00;2.85;;;1.95;;
10410;SDS011;5251;52.112;8.606;2022-08-11T12:33:28;4.45;;;1.70;;
10410;SDS011;5251;52.112;8.606;2022-08-11T12:35:57;2.05;;;1.73;;
10410;SDS011;5251;52.112;8.606;2022-08-11T12:38:24;4.03;;;1.90;;
10410;SDS011;5251;52.112;8.606;2022-08-11T12:40:51;1.65;;;1.55;;
10410;SDS011;5251;52.112;8.606;2022-08-11T12:43:36;2.00;;;1.50;;
10410;SDS011;5251;52.112;8.606;2022-08-11T12:46:28;1.85;;;1.60;;
10410;SDS011;5251;52.112;8.606;2022-08-11T12:48:57;1.70;;;1.60;;
10410;SDS011;5251;52.112;8.606;2022-08-11T12:51:53;1.90;;;1.80;;
10410;SDS011;5251;52.112;8.606;2022-08-11T12:57:25;3.20;;;1.77;;
10410;SDS011;5251;52.112;8.606;2022-08-11T13:00:20;3.05;;;1.65;;
10410;SDS011;5251;52.112;8.606;2022-08-11T13:03:07;2.22;;;1.75;;
10410;SDS011;5251;52.112;8.606;2022-08-11T13:05:54;2.75;;;1.70;;
10410;SDS011;5251;52.112;8.606;2022-08-11T13:08:22;2.05;;;1.60;;
10410;SDS011;5251;52.112;8.606;2022-08-11T13:10:50;3.13;;;1.90;;
10410;SDS011;5251;52.112;8.606;2022-08-11T13:13:36;1.83;;;1.73;;
10410;SDS011;5251;52.112;8.606;2022-08-11T13:16:04;3.47;;;1.70;;
10410;SDS011;5251;52.112;8.606;2022-08-11T13:18:31;2.38;;;1.80;;
10410;SDS011;5251;52.112;8.606;2022-08-11T13:20:58;1.75;;;1.65;;
10410;SDS011;5251;52.112;8.606;2022-08-11T13:23:24;2.35;;;1.88;;
10410;SDS011;5251;52.112;8.606;2022-08-11T13:25:51;1.48;;;1.38;;
10410;SDS011;5251;52.112;8.606;2022-08-11T13:28:19;5.03;;;1.65;;
10410;SDS011;5251;52.112;8.606;2022-08-11T13:30:47;2.25;;;1.75;;
10410;SDS011;5251;52.112;8.606;2022-08-11T13:33:49;1.85;;;1.75;;
10410;SDS011;5251;52.112;8.606;2022-08-11T13:36:19;2.20;;;2.00;;
10410;SDS011;5251;52.112;8.606;2022-08-11T13:38:46;3.20;;;1.60;;
10410;SDS011;5251;52.112;8.606;2022-08-11T13:41:12;1.83;;;1.60;;
10410;SDS011;5251;52.112;8.606;2022-08-11T13:43:57;2.67;;;1.70;;
10410;SDS011;5251;52.112;8.606;2022-08-11T13:46:23;2.90;;;1.67;;
10410;SDS011;5251;52.112;8.606;2022-08-11T13:48:52;1.90;;;1.45;;
10410;SDS011;5251;52.112;8.606;2022-08-11T13:51:21;2.47;;;1.70;;
10410;SDS011;5251;52.112;8.606;2022-08-11T13:53:55;1.63;;;1.52;;
10410;SDS011;5251;52.112;8.606;2022-08-11T13:56:26;3.67;;;1.70;;
10410;SDS011;5251;52.112;8.606;2022-08-11T13:58:53;1.98;;;1.50;;
10410;SDS011;5251;52.112;8.606;2022-08-11T14:01:20;1.52;;;1.42;;
10410;SDS011;5251;52.112;8.606;2022-08-11T14:03:53;2.42;;;1.55;;
10410;SDS011;5251;52.112;8.606;2022-08-11T14:06:20;2.65;;;1.50;;
10410;SDS011;5251;52.112;8.606;2022-08-11T14:08:47;1.85;;;1.48;;
10410;SDS011;5251;52.112;8.606;2022-08-11T14:11:17;1.60;;;1.50;;
10410;SDS011;5251;52.112;8.606;2022-08-11T14:14:02;2.80;;;1.63;;
10410;SDS011;5251;52.112;8.606;2022-08-11T14:16:32;2.15;;;1.80;;
10410;SDS011;5251;52.112;8.606;2022-08-11T14:19:05;1.63;;;1.52;;
10410;SDS011;5251;52.112;8.606;2022-08-11T14:21:35;2.40;;;1.88;;
10410;SDS011;5251;52.112;8.606;2022-08-11T14:24:23;4.45;;;1.63;;
10410;SDS011;5251;52.112;8.606;2022-08-11T14:26:50;2.97;;;1.80;;
10410;SDS011;5251;52.112;8.606;2022-08-11T14:29:18;11.02;;;2.35;;
10410;SDS011;5251;52.112;8.606;2022-08-11T14:31:49;1.67;;;1.33;;
10410;SDS011;5251;52.112;8.606;2022-08-11T14:34:19;1.70;;;1.60;;
10410;SDS011;5251;52.112;8.606;2022-08-11T14:36:48;4.25;;;1.77;;
10410;SDS011;5251;52.112;8.606;2022-08-11T14:39:23;2.22;;;1.50;;
10410;SDS011;5251;52.112;8.606;2022-08-11T14:41:57;2.30;;;1.70;;
10410;SDS011;5251;52.112;8.606;2022-08-11T14:45:03;2.03;;;1.52;;
10410;SDS011;5251;52.112;8.606;2022-08-11T14:47:50;2.00;;;1.52;;
10410;SDS011;5251;52.112;8.606;2022-08-11T14:50:23;2.33;;;1.40;;
10410;SDS011;5251;52.112;8.606;2022-08-11T14:55:19;1.80;;;1.52;;
10410;SDS011;5251;52.112;8.606;2022-08-11T14:58:04;1.60;;;1.40;;
10410;SDS011;5251;52.112;8.606;2022-08-11T15:00:35;1.73;;;1.52;;
10410;SDS011;5251;52.112;8.606;2022-08-11T15:03:01;1.50;;;1.40;;
10410;SDS011;5251;52.112;8.606;2022-08-11T15:05:35;2.55;;;1.50;;
10410;SDS011;5251;52.112;8.606;2022-08-11T15:08:05;2.38;;;1.80;;
10410;SDS011;5251;52.112;8.606;2022-08-11T15:10:32;2.10;;;1.85;;
10410;SDS011;5251;52.112;8.606;2022-08-11T15:12:58;1.80;;;1.70;;
10410;SDS011;5251;52.112;8.606;2022-08-11T15:15:25;6.75;;;2.03;;
10410;SDS011;5251;52.112;8.606;2022-08-11T15:18:10;3.75;;;1.48;;
10410;SDS011;5251;52.112;8.606;2022-08-11T15:20:42;3.28;;;1.58;;
10410;SDS011;5251;52.112;8.606;2022-08-11T15:23:27;4.15;;;1.88;;
10410;SDS011;5251;52.112;8.606;2022-08-11T15:26:16;1.75;;;1.60;;
10410;SDS011;5251;52.112;8.606;2022-08-11T15:29:06;2.63;;;1.83;;
10410;SDS011;5251;52.112;8.606;2022-08-11T15:31:52;1.70;;;1.60;;
10410;SDS011;5251;52.112;8.606;2022-08-11T15:34:36;2.95;;;1.50;;
10410;SDS011;5251;52.112;8.606;2022-08-11T15:37:23;8.02;;;2.50;;
10410;SDS011;5251;52.112;8.606;2022-08-11T15:39:52;10.68;;;2.22;;
10410;SDS011;5251;52.112;8.606;2022-08-11T15:42:56;1.70;;;1.60;;
10410;SDS011;5251;52.112;8.606;2022-08-11T15:45:47;6.88;;;1.92;;
10410;SDS011;5251;52.112;8.606;2022-08-11T15:48:21;1.83;;;1.60;;
10410;SDS011;5251;52.112;8.606;2022-08-11T15:50:57;1.88;;;1.60;;
10410;SDS011;5251;52.112;8.606;2022-08-11T15:53:56;1.83;;;1.70;;
10410;SDS011;5251;52.112;8.606;2022-08-11T15:56:24;1.60;;;1.50;;
10410;SDS011;5251;52.112;8.606;2022-08-11T15:58:53;1.58;;;1.48;;
10410;SDS011;5251;52.112;8.606;2022-08-11T16:01:39;1.67;;;1.50;;
10410;SDS011;5251;52.112;8.606;2022-08-11T16:04:26;2.55;;;1.70;;
10410;SDS011;5251;52.112;8.606;2022-08-11T16:07:02;2.92;;;1.90;;
10410;SDS011;5251;52.112;8.606;2022-08-11T16:12:03;2.42;;;1.70;;
10410;SDS011;5251;52.112;8.606;2022-08-11T16:14:35;2.88;;;1.90;;
10410;SDS011;5251;52.112;8.606;2022-08-11T16:17:24;2.15;;;1.70;;
10410;SDS011;5251;52.112;8.606;2022-08-11T16:19:52;2.70;;;1.90;;
10410;SDS011;5251;52.112;8.606;2022-08-11T16:22:22;1.95;;;1.55;;
10410;SDS011;5251;52.112;8.606;2022-08-11T16:24:52;3.45;;;1.77;;
10410;SDS011;5251;52.112;8.606;2022-08-11T16:27:20;1.80;;;1.70;;
10410;SDS011;5251;52.112;8.606;2022-08-11T16:29:47;2.58;;;1.60;;
10410;SDS011;5251;52.112;8.606;2022-08-11T16:32:16;2.60;;;1.70;;
10410;SDS011;5251;52.112;8.606;2022-08-11T16:34:51;1.60;;;1.50;;
10410;SDS011;5251;52.112;8.606;2022-08-11T16:37:40;1.70;;;1.60;;
10410;SDS011;5251;52.112;8.606;2022-08-11T16:40:25;2.00;;;1.60;;
10410;SDS011;5251;52.112;8.606;2022-08-11T16:42:53;2.47;;;1.50;;
10410;SDS011;5251;52.112;8.606;2022-08-11T16:45:39;2.38;;;1.70;;
10410;SDS011;5251;52.112;8.606;2022-08-11T16:48:25;5.10;;;2.20;;
10410;SDS011;5251;52.112;8.606;2022-08-11T16:50:56;2.78;;;1.63;;
10410;SDS011;5251;52.112;8.606;2022-08-11T16:53:24;2.55;;;1.60;;
10410;SDS011;5251;52.112;8.606;2022-08-11T16:55:52;4.88;;;1.70;;
10410;SDS011;5251;52.112;8.606;2022-08-11T16:58:20;1.92;;;1.52;;
10410;SDS011;5251;52.112;8.606;2022-08-11T17:01:06;3.20;;;1.80;;
10410;SDS011;5251;52.112;8.606;2022-08-11T17:03:33;3.05;;;1.63;;
10410;SDS011;5251;52.112;8.606;2022-08-11T17:06:23;1.77;;;1.60;;
10410;SDS011;5251;52.112;8.606;2022-08-11T17:09:07;2.08;;;1.88;;
10410;SDS011;5251;52.112;8.606;2022-08-11T17:11:56;3.03;;;1.70;;
10410;SDS011;5251;52.112;8.606;2022-08-11T17:14:47;2.00;;;1.70;;
10410;SDS011;5251;52.112;8.606;2022-08-11T17:17:16;1.98;;;1.80;;
10410;SDS011;5251;52.112;8.606;2022-08-11T17:19:48;3.30;;;1.80;;
10410;SDS011;5251;52.112;8.606;2022-08-11T17:22:17;2.65;;;1.80;;
10410;SDS011;5251;52.112;8.606;2022-08-11T17:25:04;1.92;;;1.50;;
10410;SDS011;5251;52.112;8.606;2022-08-11T17:27:32;5.22;;;2.10;;
10410;SDS011;5251;52.112;8.606;2022-08-11T17:30:02;5.20;;;1.80;;
10410;SDS011;5251;52.112;8.606;2022-08-11T17:32:32;1.88;;;1.73;;
10410;SDS011;5251;52.112;8.606;2022-08-11T17:35:19;3.03;;;1.80;;
10410;SDS011;5251;52.112;8.606;2022-08-11T17:37:56;2.25;;;1.50;;
10410;SDS011;5251;52.112;8.606;2022-08-11T17:40:30;2.22;;;1.50;;
10410;SDS011;5251;52.112;8.606;2022-08-11T17:42:58;2.35;;;1.70;;
10410;SDS011;5251;52.112;8.606;2022-08-11T17:45:44;1.73;;;1.63;;
10410;SDS011;5251;52.112;8.606;2022-08-11T17:48:31;2.90;;;1.90;;
10410;SDS011;5251;52.112;8.606;2022-08-11T17:51:11;1.90;;;1.75;;
10410;SDS011;5251;52.112;8.606;2022-08-11T17:54:02;2.38;;;2.10;;
10410;SDS011;5251;52.112;8.606;2022-08-11T17:56:48;1.88;;;1.70;;
10410;SDS011;5251;52.112;8.606;2022-08-11T17:59:33;1.70;;;1.60;;
10410;SDS011;5251;52.112;8.606;2022-08-11T18:02:38;2.72;;;1.65;;
10410;SDS011;5251;52.112;8.606;2022-08-11T18:05:26;1.75;;;1.60;;
10410;SDS011;5251;52.112;8.606;2022-08-11T18:07:56;1.92;;;1.70;;
10410;SDS011;5251;52.112;8.606;2022-08-11T18:10:41;2.03;;;1.70;;
10410;SDS011;5251;52.112;8.606;2022-08-11T18:13:28;1.58;;;1.45;;
10410;SDS011;5251;52.112;8.606;2022-08-11T18:16:15;2.20;;;1.58;;
10410;SDS011;5251;52.112;8.606;2022-08-11T18:19:01;2.05;;;1.50;;
10410;SDS011;5251;52.112;8.606;2022-08-11T18:21:46;1.60;;;1.50;;
10410;SDS011;5251;52.112;8.606;2022-08-11T18:24:34;1.70;;;1.60;;
10410;SDS011;5251;52.112;8.606;2022-08-11T18:27:24;1.75;;;1.60;;
10410;SDS011;5251;52.112;8.606;2022-08-11T18:30:13;1.88;;;1.50;;
10410;SDS011;5251;52.112;8.606;2022-08-11T18:32:59;2.60;;;1.80;;
10410;SDS011;5251;52.112;8.606;2022-08-11T18:35:49;2.25;;;1.80;;
10410;SDS011;5251;52.112;8.606;2022-08-11T18:38:40;1.73;;;1.60;;
10410;SDS011;5251;52.112;8.606;2022-08-11T18:41:26;1.90;;;1.80;;
10410;SDS011;5251;52.112;8.606;2022-08-11T18:44:14;4.38;;;1.90;;
10410;SDS011;5251;52.112;8.606;2022-08-11T18:47:01;2.28;;;1.83;;
10410;SDS011;5251;52.112;8.606;2022-08-11T18:49:51;2.20;;;1.70;;
10410;SDS011;5251;52.112;8.606;2022-08-11T18:52:36;3.00;;;1.50;;
10410;SDS011;5251;52.112;8.606;2022-08-11T18:55:25;1.52;;;1.40;;
10410;SDS011;5251;52.112;8.606;2022-08-11T18:58:10;1.98;;;1.50;;
10410;SDS011;5251;52.112;8.606;2022-08-11T19:00:57;2.58;;;1.95;;
10410;SDS011;5251;52.112;8.606;2022-08-11T19:03:44;2.65;;;1.85;;
10410;SDS011;5251;52.112;8.606;2022-08-11T19:06:29;2.67;;;1.70;;
10410;SDS011;5251;52.112;8.606;2022-08-11T19:09:16;2.90;;;1.60;;
10410;SDS011;5251;52.112;8.606;2022-08-11T19:12:02;1.60;;;1.38;;
10410;SDS011;5251;52.112;8.606;2022-08-11T19:14:49;3.50;;;1.67;;
10410;SDS011;5251;52.112;8.606;2022-08-11T19:17:35;5.25;;;1.80;;
10410;SDS011;5251;52.112;8.606;2022-08-11T19:20:24;2.10;;;1.80;;
10410;SDS011;5251;52.112;8.606;2022-08-11T19:23:10;2.90;;;2.15;;
10410;SDS011;5251;52.112;8.606;2022-08-11T19:25:57;2.95;;;2.03;;
10410;SDS011;5251;52.112;8.606;2022-08-11T19:28:43;1.70;;;1.60;;
10410;SDS011;5251;52.112;8.606;2022-08-11T19:31:30;1.70;;;1.60;;
10410;SDS011;5251;52.112;8.606;2022-08-11T19:34:16;2.55;;;1.58;;